Time;durP1;ratioP1;P1;durP2;ratioP2;P2;SDS_P1;SDS_P2;PMS_P1;PMS_P2;Temp;Humidity;BMP_temperature;BMP_pressure;BME280_temperature;BME280_humidity;BME280_pressure;Samples;Min_cycle;Max_cycle;Signal;HPM_P1;HPM_P2
2021/04/26 00:01:15;;;;;;;22.75;14.23;;;282.30;2022.40;;;;;;5067512;28;20032;-72
2021/04/26 00:03:41;;;;;;;18.77;14.43;;;282.20;2048.00;;;;;;5065833;28;20364;-72
2021/04/26 00:06:07;;;;;;;26.17;14.95;;;282.20;2073.60;;;;;;5072009;28;20059;-72
2021/04/26 00:08:33;;;;;;;22.17;14.27;;;282.10;2073.60;;;;;;5075103;28;20021;-72
2021/04/26 00:10:59;;;;;;;21.40;15.27;;;282.00;2124.80;;;;;;5068016;28;20031;-72
2021/04/26 00:13:25;;;;;;;19.90;15.73;;;281.90;2176.00;;;;;;5073010;28;20469;-72
2021/04/26 00:15:51;;;;;;;24.20;17.60;;;281.80;2201.60;;;;;;5074660;28;20028;-72
2021/04/26 00:18:16;;;;;;;26.33;17.05;;;281.80;2227.20;;;;;;5074602;28;20024;-72
2021/04/26 00:20:43;;;;;;;24.15;18.48;;;281.80;2227.20;;;;;;5069795;28;20036;-72
2021/04/26 00:23:09;;;;;;;27.70;18.95;;;281.80;2252.80;;;;;;5059379;28;20021;-72
2021/04/26 00:25:35;;;;;;;26.70;17.15;;;281.70;2278.40;;;;;;5063220;28;20025;-72
2021/04/26 00:28:02;;;;;;;32.65;20.55;;;281.70;2278.40;;;;;;5061644;28;20075;-72
2021/04/26 00:30:30;;;;;;;30.98;19.98;;;281.70;2278.40;;;;;;5069978;28;20111;-72
2021/04/26 00:32:56;;;;;;;26.80;19.88;;;281.70;2278.40;;;;;;5072528;28;20035;-71
2021/04/26 00:35:22;;;;;;;24.02;17.88;;;281.70;2278.40;;;;;;5059796;28;20032;-72
2021/04/26 00:37:50;;;;;;;24.27;18.60;;;281.70;2278.40;;;;;;5089835;28;20035;-72
2021/04/26 00:40:17;;;;;;;26.65;19.35;;;281.70;2278.40;;;;;;5062463;28;20029;-72
2021/04/26 00:42:43;;;;;;;27.77;19.52;;;281.60;2278.40;;;;;;5065904;28;20476;-73
2021/04/26 00:45:12;;;;;;;32.75;20.65;;;281.60;2278.40;;;;;;5070372;28;20039;-72
2021/04/26 00:47:40;;;;;;;26.90;19.02;;;256.90;2252.80;;;;;;5072787;28;20016;-72
2021/04/26 00:50:09;;;;;;;29.20;18.85;;;256.80;2252.80;;;;;;5073803;28;20021;-72
2021/04/26 00:52:35;;;;;;;26.63;19.88;;;256.70;2252.80;;;;;;5074302;28;20020;-72
2021/04/26 00:55:02;;;;;;;28.73;21.25;;;256.70;2252.80;;;;;;5073811;28;20081;-72
2021/04/26 00:57:28;;;;;;;28.70;21.15;;;256.50;2252.80;;;;;;5074108;28;20036;-72
2021/04/26 00:59:54;;;;;;;27.63;19.73;;;256.40;2252.80;;;;;;5072699;28;20052;-72
2021/04/26 01:02:19;;;;;;;32.30;20.67;;;256.40;2252.80;;;;;;5072730;28;20470;-71
2021/04/26 01:04:45;;;;;;;28.95;20.42;;;256.30;2252.80;;;;;;5072833;28;20119;-72
2021/04/26 01:07:11;;;;;;;27.48;19.75;;;256.30;2252.80;;;;;;5072862;28;20021;-72
2021/04/26 01:09:37;;;;;;;30.60;21.40;;;256.30;2252.80;;;;;;5071476;28;20036;-72
2021/04/26 01:12:30;;;;;;;27.90;20.80;;;256.30;2252.80;;;;;;5066238;28;20083;-72
2021/04/26 01:15:21;;;;;;;31.00;20.48;;;256.30;2252.80;;;;;;5072939;28;20067;-72
2021/04/26 01:18:07;;;;;;;28.00;20.52;;;256.30;2252.80;;;;;;5073708;28;20017;-71
2021/04/26 01:20:38;;;;;;;31.08;20.38;;;256.20;2252.80;;;;;;5072494;28;20032;-72
2021/04/26 01:23:52;;;;;;;26.75;21.05;;;256.20;2252.80;;;;;;5089311;28;20021;-72
2021/04/26 01:26:31;;;;;;;28.98;21.27;;;256.20;2252.80;;;;;;5034402;28;20036;-72
2021/04/26 01:29:07;;;;;;;31.92;21.30;;;256.10;2252.80;;;;;;5051720;28;20490;-72
2021/04/26 01:31:55;;;;;;;28.42;19.35;;;256.10;2252.80;;;;;;5051279;28;20040;-71
2021/04/26 01:34:26;;;;;;;26.83;18.73;;;256.10;2252.80;;;;;;5031224;28;20086;-72
2021/04/26 01:36:53;;;;;;;27.08;20.50;;;256.20;2252.80;;;;;;5050442;28;20099;-72
2021/04/26 01:39:20;;;;;;;28.67;21.45;;;256.20;2252.80;;;;;;5052572;28;20017;-72
2021/04/26 01:41:47;;;;;;;25.60;19.88;;;256.30;2252.80;;;;;;5050220;28;20025;-72
2021/04/26 01:44:14;;;;;;;30.63;20.55;;;256.20;2252.80;;;;;;5049773;28;20033;-73
2021/04/26 01:46:42;;;;;;;26.25;20.60;;;256.20;2252.80;;;;;;5050343;28;20154;-72
2021/04/26 01:49:09;;;;;;;31.20;22.48;;;256.20;2252.80;;;;;;5050926;28;20104;-73
2021/04/26 01:51:36;;;;;;;31.35;20.90;;;256.10;2252.80;;;;;;5034631;28;20037;-73
2021/04/26 01:54:03;;;;;;;27.10;19.92;;;256.00;2252.80;;;;;;5051054;28;20068;-72
2021/04/26 01:56:34;;;;;;;25.58;19.73;;;231.30;2252.80;;;;;;5033630;28;20032;-72
2021/04/26 01:59:00;;;;;;;30.52;20.25;;;231.30;2252.80;;;;;;5050788;28;20037;-72
2021/04/26 02:01:27;;;;;;;26.60;20.58;;;231.20;2252.80;;;;;;5047145;28;20063;-72
2021/04/26 02:03:56;;;;;;;29.05;20.35;;;231.20;2252.80;;;;;;5064810;28;20092;-72
2021/04/26 02:06:23;;;;;;;32.60;19.90;;;231.20;2252.80;;;;;;5072983;28;20024;-72
2021/04/26 02:08:50;;;;;;;26.65;20.17;;;231.00;2252.80;;;;;;5071489;28;20074;-72
2021/04/26 02:11:16;;;;;;;27.45;19.70;;;230.90;2252.80;;;;;;5072795;28;20043;-72
2021/04/26 02:13:45;;;;;;;26.55;19.13;;;230.90;2252.80;;;;;;5072761;28;20468;-71
2021/04/26 02:16:11;;;;;;;30.48;19.17;;;230.80;2252.80;;;;;;5072748;28;20502;-72
2021/04/26 02:18:37;;;;;;;28.88;20.30;;;230.80;2252.80;;;;;;5072686;28;20029;-72
2021/04/26 02:21:04;;;;;;;27.98;20.77;;;230.70;2252.80;;;;;;5071390;28;20025;-72
2021/04/26 02:23:30;;;;;;;31.40;20.67;;;230.70;2252.80;;;;;;5072554;28;20376;-72
2021/04/26 02:25:59;;;;;;;28.20;19.92;;;230.70;2252.80;;;;;;5072560;28;20017;-72
2021/04/26 02:28:25;;;;;;;25.67;18.90;;;230.80;2252.80;;;;;;5072260;28;20017;-73
2021/04/26 02:30:54;;;;;;;24.98;19.10;;;230.80;2252.80;;;;;;5071669;28;20024;-72
2021/04/26 02:33:28;;;;;;;26.90;20.10;;;230.80;2252.80;;;;;;5084172;28;20463;-73
2021/04/26 02:36:07;;;;;;;23.15;18.30;;;230.90;2252.80;;;;;;5071166;28;20056;-72
2021/04/26 02:38:36;;;;;;;29.95;20.88;;;230.80;2252.80;;;;;;5072580;28;20024;-73
2021/04/26 02:41:08;;;;;;;26.95;20.88;;;230.80;2252.80;;;;;;5085615;28;20039;-73
2021/04/26 02:43:41;;;;;;;25.00;19.35;;;230.80;2252.80;;;;;;5079442;28;20094;-73
2021/04/26 02:46:08;;;;;;;24.02;19.83;;;230.80;2252.80;;;;;;5069682;28;20379;-72
2021/04/26 02:48:42;;;;;;;26.88;19.58;;;230.80;2252.80;;;;;;5064015;28;20013;-72
2021/04/26 02:51:08;;;;;;;25.63;19.90;;;230.70;2252.80;;;;;;5068345;28;20020;-72
2021/04/26 02:53:35;;;;;;;29.55;19.80;;;230.70;2252.80;;;;;;5072136;28;20025;-73
2021/04/26 02:56:04;;;;;;;26.40;19.70;;;230.70;2252.80;;;;;;5071301;28;20070;-72
2021/04/26 02:58:30;;;;;;;27.63;20.25;;;230.60;2252.80;;;;;;5070508;28;20516;-73
2021/04/26 03:00:58;;;;;;;23.63;19.10;;;230.50;2252.80;;;;;;5070463;28;20446;-72
2021/04/26 03:03:25;;;;;;;26.85;20.05;;;230.40;2252.80;;;;;;5071888;28;20025;-72
2021/04/26 03:05:51;;;;;;;37.83;22.17;;;230.40;2252.80;;;;;;5065582;28;20028;-72
2021/04/26 03:08:17;;;;;;;31.77;19.25;;;230.40;2252.80;;;;;;5069474;28;20434;-72
2021/04/26 03:10:46;;;;;;;31.67;18.55;;;230.40;2252.80;;;;;;5071737;28;20086;-72
2021/04/26 03:13:13;;;;;;;27.70;15.40;;;205.70;2252.80;;;;;;5071687;28;20063;-72
2021/04/26 03:15:39;;;;;;;24.25;13.85;;;230.40;2252.80;;;;;;5070535;28;20024;-72
2021/04/26 03:18:06;;;;;;;31.92;15.07;;;205.70;2252.80;;;;;;5072028;28;20449;-72
2021/04/26 03:20:32;;;;;;;22.67;14.40;;;205.70;2252.80;;;;;;5069318;28;20115;-72
2021/04/26 03:22:58;;;;;;;21.73;12.90;;;205.70;2252.80;;;;;;5070619;28;20079;-72
2021/04/26 03:25:24;;;;;;;24.88;14.50;;;205.70;2252.80;;;;;;5070394;28;20021;-72
2021/04/26 03:27:53;;;;;;;24.10;12.73;;;205.70;2252.80;;;;;;5069297;28;20024;-72
2021/04/26 03:30:23;;;;;;;19.10;12.93;;;205.60;2252.80;;;;;;5070509;28;20032;-72
2021/04/26 03:32:49;;;;;;;23.05;13.75;;;205.70;2252.80;;;;;;5071536;28;20032;-72
2021/04/26 03:35:17;;;;;;;21.10;12.52;;;205.70;2252.80;;;;;;5071637;28;20380;-71
2021/04/26 03:37:46;;;;;;;17.95;13.07;;;205.70;2252.80;;;;;;5071534;28;20029;-72
2021/04/26 03:40:17;;;;;;;22.75;13.48;;;205.70;2252.80;;;;;;5071688;28;20021;-72
2021/04/26 03:42:43;;;;;;;20.65;14.32;;;205.70;2252.80;;;;;;5071568;28;20021;-72
2021/04/26 03:45:12;;;;;;;23.90;13.73;;;205.70;2252.80;;;;;;5071424;28;20371;-71
2021/04/26 03:47:38;;;;;;;24.80;15.05;;;205.70;2252.80;;;;;;5070468;28;20499;-72
2021/04/26 03:50:04;;;;;;;19.80;13.38;;;230.40;2252.80;;;;;;5073300;28;20032;-72
2021/04/26 03:52:30;;;;;;;22.80;13.68;;;205.70;2252.80;;;;;;5070422;28;20442;-72
2021/04/26 03:54:55;;;;;;;24.25;14.13;;;205.70;2252.80;;;;;;5071340;28;20021;-72
2021/04/26 03:57:21;;;;;;;23.67;14.70;;;205.60;2252.80;;;;;;5070410;28;20119;-72
2021/04/26 03:59:47;;;;;;;21.73;13.57;;;205.60;2252.80;;;;;;5086713;28;20048;-72
2021/04/26 04:02:13;;;;;;;20.40;12.77;;;205.60;2252.80;;;;;;5067124;28;20028;-72
2021/04/26 04:04:40;;;;;;;18.52;12.43;;;205.70;2252.80;;;;;;5061462;28;20070;-73
2021/04/26 04:07:06;;;;;;;19.25;13.00;;;230.40;2252.80;;;;;;5071514;28;20364;-72
2021/04/26 04:09:31;;;;;;;19.65;12.70;;;230.60;2252.80;;;;;;5071196;28;20090;-72
2021/04/26 04:11:57;;;;;;;18.73;12.40;;;205.70;2252.80;;;;;;5070286;28;20024;-72
2021/04/26 04:14:23;;;;;;;20.52;12.23;;;230.40;2252.80;;;;;;5068581;28;20024;-72
2021/04/26 04:16:48;;;;;;;20.05;13.20;;;205.70;2252.80;;;;;;5071212;28;20021;-73
2021/04/26 04:19:14;;;;;;;20.85;12.85;;;230.40;2252.80;;;;;;5069834;28;20441;-72
2021/04/26 04:21:40;;;;;;;14.70;10.15;;;230.40;2252.80;;;;;;5064793;28;20472;-73
2021/04/26 04:24:06;;;;;;;22.15;11.65;;;230.50;2252.80;;;;;;5070952;28;20025;-73
2021/04/26 04:26:32;;;;;;;14.43;10.65;;;230.50;2252.80;;;;;;5072195;28;20031;-73
2021/04/26 04:28:58;;;;;;;17.33;11.23;;;230.50;2252.80;;;;;;5076045;28;20020;-74
2021/04/26 04:31:25;;;;;;;13.85;10.52;;;230.50;2252.80;;;;;;5073893;28;20047;-73
2021/04/26 04:33:51;;;;;;;19.27;11.40;;;230.50;2252.80;;;;;;5074042;28;20025;-73
2021/04/26 04:36:17;;;;;;;15.50;9.30;;;230.60;2252.80;;;;;;5074471;28;20467;-74
2021/04/26 04:38:43;;;;;;;15.20;9.35;;;230.60;2201.60;;;;;;5073385;28;20035;-74
2021/04/26 04:41:08;;;;;;;15.93;9.40;;;230.60;2176.00;;;;;;5073306;28;20120;-73
2021/04/26 04:43:34;;;;;;;14.93;8.98;;;230.60;2176.00;;;;;;5074470;28;20096;-73
2021/04/26 04:46:00;;;;;;;14.95;9.43;;;230.60;2150.40;;;;;;5073376;28;20012;-73
2021/04/26 04:48:26;;;;;;;18.13;9.18;;;230.60;2150.40;;;;;;5072935;28;20025;-73
2021/04/26 04:50:52;;;;;;;19.15;9.32;;;230.60;2124.80;;;;;;5059771;28;20443;-73
2021/04/26 04:53:17;;;;;;;12.80;7.95;;;230.60;2124.80;;;;;;5071771;28;20016;-74
2021/04/26 04:55:43;;;;;;;17.33;8.25;;;230.70;2124.80;;;;;;5074054;28;20032;-73
2021/04/26 04:58:09;;;;;;;13.55;8.85;;;230.70;2073.60;;;;;;5072616;28;20052;-73
2021/04/26 05:00:34;;;;;;;12.90;8.55;;;230.80;2073.60;;;;;;5074036;28;20457;-72
2021/04/26 05:03:00;;;;;;;17.63;9.38;;;230.80;2048.00;;;;;;5073825;28;20028;-73
2021/04/26 05:05:26;;;;;;;14.35;8.82;;;230.90;2073.60;;;;;;5071960;28;20028;-73
2021/04/26 05:07:52;;;;;;;12.95;7.80;;;230.90;2048.00;;;;;;5070625;28;20075;-73
2021/04/26 05:10:17;;;;;;;14.02;8.35;;;231.00;1996.80;;;;;;5073919;28;20113;-73
2021/04/26 05:12:43;;;;;;;11.55;8.32;;;231.00;2022.40;;;;;;5074718;28;20036;-73
2021/04/26 05:15:09;;;;;;;11.00;8.05;;;231.00;2022.40;;;;;;5076983;28;20039;-73
2021/04/26 05:17:35;;;;;;;10.63;7.28;;;230.90;1996.80;;;;;;5069086;28;20024;-73
2021/04/26 05:20:03;;;;;;;10.00;7.03;;;230.90;1971.20;;;;;;5066843;28;20039;-72
2021/04/26 05:22:28;;;;;;;13.18;8.20;;;230.90;1971.20;;;;;;5073642;28;20029;-72
2021/04/26 05:24:56;;;;;;;17.73;8.40;;;231.00;1945.60;;;;;;5072325;28;20434;-72
2021/04/26 05:27:21;;;;;;;12.32;7.43;;;231.00;1920.00;;;;;;5075309;28;20025;-72
2021/04/26 05:29:47;;;;;;;9.23;6.60;;;231.00;1894.40;;;;;;5073382;28;20031;-72
2021/04/26 05:32:13;;;;;;;11.52;6.75;;;231.00;1894.40;;;;;;5073383;28;20020;-72
2021/04/26 05:34:40;;;;;;;16.98;9.82;;;231.20;1894.40;;;;;;5073521;28;20025;-72
2021/04/26 05:37:05;;;;;;;13.20;8.25;;;256.00;1868.80;;;;;;5067849;28;20024;-72
2021/04/26 05:39:31;;;;;;;15.85;10.32;;;256.10;1843.20;;;;;;5071944;28;20029;-72
2021/04/26 05:41:57;;;;;;;13.88;8.48;;;256.20;1817.60;;;;;;5063161;28;20468;-72
2021/04/26 05:44:24;;;;;;;14.80;9.10;;;256.30;1792.00;;;;;;5075062;28;20087;-73
2021/04/26 05:46:49;;;;;;;12.57;7.78;;;256.30;1740.80;;;;;;5067434;28;20043;-72
2021/04/26 05:49:15;;;;;;;8.82;6.45;;;256.30;1715.20;;;;;;5073262;28;20020;-73
2021/04/26 05:51:41;;;;;;;8.85;6.82;;;256.40;1740.80;;;;;;5071283;28;20150;-72
2021/04/26 05:54:07;;;;;;;7.90;5.45;;;256.30;1740.80;;;;;;5072636;28;20146;-72
2021/04/26 05:56:32;;;;;;;14.75;5.78;;;256.40;1715.20;;;;;;5071412;28;20487;-72
2021/04/26 05:58:58;;;;;;;8.55;5.38;;;256.50;1689.60;;;;;;5073574;28;20037;-72
2021/04/26 06:01:24;;;;;;;10.80;6.32;;;256.70;1689.60;;;;;;5072220;28;20047;-72
2021/04/26 06:03:49;;;;;;;12.02;6.53;;;281.70;1689.60;;;;;;5072403;28;20387;-72
2021/04/26 06:06:15;;;;;;;11.77;7.03;;;281.80;1664.00;;;;;;5072504;28;20024;-72
2021/04/26 06:08:41;;;;;;;13.18;8.00;;;281.90;1638.40;;;;;;5059963;28;20104;-72
2021/04/26 06:11:07;;;;;;;11.55;5.90;;;281.70;1612.80;;;;;;5072830;28;20029;-72
2021/04/26 06:13:33;;;;;;;23.58;11.45;;;282.00;1612.80;;;;;;5070838;28;20036;-72
2021/04/26 06:15:59;;;;;;;17.00;10.80;;;282.00;1612.80;;;;;;5072343;28;20436;-72
2021/04/26 06:18:24;;;;;;;14.05;9.75;;;282.20;1587.20;;;;;;5070220;28;20086;-72
2021/04/26 06:20:52;;;;;;;11.43;7.80;;;282.30;1587.20;;;;;;5071352;28;20024;-72
2021/04/26 06:23:18;;;;;;;8.50;5.57;;;282.30;1587.20;;;;;;5069404;28;20024;-72
2021/04/26 06:25:45;;;;;;;8.25;5.40;;;282.40;1561.60;;;;;;5072296;28;20021;-72
2021/04/26 06:28:12;;;;;;;7.82;4.85;;;307.20;1536.00;;;;;;5068993;28;20036;-72
2021/04/26 06:30:39;;;;;;;13.18;5.75;;;307.50;1536.00;;;;;;5071065;28;20120;-73
2021/04/26 06:33:08;;;;;;;8.73;5.63;;;307.70;1484.80;;;;;;5081094;28;20029;-73
2021/04/26 06:35:34;;;;;;;8.85;5.25;;;308.00;1459.20;;;;;;5062888;28;20041;-72
2021/04/26 06:38:00;;;;;;;7.55;4.63;;;333.00;1459.20;;;;;;5070107;28;20054;-73
2021/04/26 06:40:26;;;;;;;9.43;5.35;;;333.20;1459.20;;;;;;5072258;28;20017;-73
2021/04/26 06:42:52;;;;;;;9.55;4.65;;;333.70;1356.80;;;;;;5054295;28;20043;-72
2021/04/26 06:45:21;;;;;;;10.02;5.90;;;358.40;1331.20;;;;;;5069588;28;20013;-72
2021/04/26 06:47:53;;;;;;;12.82;8.57;;;358.40;1305.60;;;;;;5069394;28;20024;-72
2021/04/26 06:50:21;;;;;;;9.68;6.43;;;358.50;1331.20;;;;;;5072200;28;20016;-72
2021/04/26 06:52:48;;;;;;;10.18;6.07;;;358.60;1280.00;;;;;;5061399;28;20445;-73
2021/04/26 06:55:15;;;;;;;13.32;6.15;;;358.70;1280.00;;;;;;5061935;28;20590;-72
2021/04/26 06:57:41;;;;;;;9.65;5.85;;;358.80;1254.40;;;;;;5070523;28;20036;-72
2021/04/26 07:00:09;;;;;;;17.92;7.38;;;358.90;1254.40;;;;;;5071707;28;20051;-73
2021/04/26 07:02:34;;;;;;;9.77;5.28;;;358.80;1228.80;;;;;;5071422;28;20032;-72
2021/04/26 07:05:01;;;;;;;9.52;6.18;;;358.60;1228.80;;;;;;5071822;28;20005;-72
2021/04/26 07:07:27;;;;;;;9.25;5.88;;;358.60;1254.40;;;;;;5071815;28;20472;-72
2021/04/26 07:09:53;;;;;;;7.78;4.85;;;358.50;1254.40;;;;;;5069671;28;20029;-72
2021/04/26 07:12:19;;;;;;;8.65;5.80;;;358.70;1254.40;;;;;;5065661;28;20017;-73
2021/04/26 07:14:45;;;;;;;8.35;4.72;;;358.90;1228.80;;;;;;5066940;28;20050;-73
2021/04/26 07:17:11;;;;;;;6.65;4.18;;;359.10;1228.80;;;;;;5059569;28;20020;-72
2021/04/26 07:19:37;;;;;;;7.63;5.18;;;359.30;1177.60;;;;;;5060436;28;20017;-73
2021/04/26 07:22:02;;;;;;;5.72;4.07;;;384.10;1177.60;;;;;;5065957;28;20348;-73
2021/04/26 07:24:28;;;;;;;6.35;4.30;;;384.00;1126.40;;;;;;5070136;28;20090;-72
2021/04/26 07:26:54;;;;;;;6.75;4.05;;;359.30;1126.40;;;;;;5069884;28;20375;-72
2021/04/26 07:29:20;;;;;;;7.82;4.30;;;359.30;1126.40;;;;;;5070122;28;20689;-72
2021/04/26 07:31:45;;;;;;;7.45;4.82;;;359.30;1126.40;;;;;;5066173;28;20044;-71
2021/04/26 07:34:11;;;;;;;6.65;4.22;;;384.30;1126.40;;;;;;5065408;28;20112;-72
2021/04/26 07:36:37;;;;;;;8.70;5.05;;;384.50;1100.80;;;;;;5071049;28;20090;-74
2021/04/26 07:39:04;;;;;;;14.68;7.05;;;384.50;1100.80;;;;;;5068678;28;20368;-73
2021/04/26 07:41:30;;;;;;;9.82;6.13;;;384.80;1024.00;;;;;;5070462;28;20036;-73
2021/04/26 07:43:56;;;;;;;10.70;4.55;;;409.70;1024.00;;;;;;5069243;28;20031;-73
2021/04/26 07:46:22;;;;;;;5.60;3.53;;;384.90;1024.00;;;;;;5070679;28;20070;-73
2021/04/26 07:48:48;;;;;;;8.07;6.10;;;384.70;1024.00;;;;;;5071254;28;20871;-73
2021/04/26 07:51:15;;;;;;;7.28;3.97;;;409.60;1049.60;;;;;;5070442;28;20020;-73
2021/04/26 07:53:40;;;;;;;7.18;4.05;;;409.80;998.40;;;;;;5071069;28;20391;-73
2021/04/26 07:56:06;;;;;;;7.82;4.40;;;409.70;1024.00;;;;;;5070539;28;20031;-72
2021/04/26 07:58:32;;;;;;;6.53;4.40;;;409.60;998.40;;;;;;5065920;28;20032;-73
2021/04/26 08:00:58;;;;;;;6.85;4.13;;;409.90;972.80;;;;;;5070444;28;20127;-73
2021/04/26 08:03:24;;;;;;;7.88;4.70;;;410.30;972.80;;;;;;5074563;28;20028;-74
2021/04/26 08:05:52;;;;;;;7.00;4.43;;;410.40;972.80;;;;;;5073816;28;20017;-73
2021/04/26 08:08:18;;;;;;;6.50;3.70;;;410.50;972.80;;;;;;5073781;28;20048;-73
2021/04/26 08:10:44;;;;;;;6.85;4.43;;;410.30;921.60;;;;;;5068856;28;20063;-73
2021/04/26 08:13:10;;;;;;;11.90;4.18;;;410.30;947.20;;;;;;5072675;28;20118;-73
2021/04/26 08:15:35;;;;;;;10.77;4.53;;;435.40;921.60;;;;;;5074471;28;20028;-73
2021/04/26 08:18:01;;;;;;;9.00;5.80;;;435.70;896.00;;;;;;5071390;28;20394;-74
2021/04/26 08:20:27;;;;;;;6.70;4.35;;;435.70;870.40;;;;;;5074307;28;20040;-73
2021/04/26 08:22:53;;;;;;;8.00;4.72;;;435.50;870.40;;;;;;5074571;28;20556;-73
2021/04/26 08:25:19;;;;;;;8.18;5.32;;;435.40;844.80;;;;;;5074092;28;20017;-73
2021/04/26 08:27:45;;;;;;;7.00;3.97;;;435.40;870.40;;;;;;5074209;28;20065;-73
2021/04/26 08:30:12;;;;;;;6.57;3.85;;;435.50;819.20;;;;;;5073361;28;20025;-73
2021/04/26 08:32:37;;;;;;;7.45;4.88;;;435.90;793.60;;;;;;5071181;28;20426;-73
2021/04/26 08:35:04;;;;;;;5.05;3.30;;;461.10;768.00;;;;;;5072558;28;20069;-73
2021/04/26 08:37:30;;;;;;;5.80;4.15;;;461.20;819.20;;;;;;5072745;28;20107;-73
2021/04/26 08:39:56;;;;;;;6.47;4.47;;;461.30;793.60;;;;;;5072942;28;20104;-74
2021/04/26 08:42:22;;;;;;;7.65;3.55;;;461.30;768.00;;;;;;5072332;28;20032;-73
2021/04/26 08:44:48;;;;;;;7.72;4.72;;;486.50;742.40;;;;;;5068569;28;20096;-73
2021/04/26 08:47:15;;;;;;;7.78;4.47;;;487.00;716.80;;;;;;5073469;28;20088;-73
2021/04/26 08:49:41;;;;;;;6.80;5.32;;;487.30;716.80;;;;;;5070815;28;20021;-73
2021/04/26 08:52:07;;;;;;;8.25;5.15;;;512.20;716.80;;;;;;5071935;28;20029;-73
2021/04/26 08:54:33;;;;;;;8.43;4.35;;;487.10;742.40;;;;;;5070377;28;20020;-73
2021/04/26 08:56:59;;;;;;;10.18;3.70;;;487.20;742.40;;;;;;5075731;28;20026;-73
2021/04/26 08:59:25;;;;;;;6.25;3.85;;;487.30;716.80;;;;;;5071948;28;20505;-74
2021/04/26 09:02:05;;;;;;;7.20;4.30;;;512.70;691.20;;;;;;5073060;28;20043;-73
2021/04/26 09:04:35;;;;;;;6.28;3.33;;;538.00;691.20;;;;;;5071429;28;20017;-73
2021/04/26 09:07:04;;;;;;;6.05;3.45;;;538.00;716.80;;;;;;5073009;28;20032;-73
2021/04/26 09:09:43;;;;;;;5.43;3.40;;;538.50;691.20;;;;;;5068821;28;20021;-73
2021/04/26 09:12:23;;;;;;;6.72;4.63;;;538.50;691.20;;;;;;5072744;28;20082;-74
2021/04/26 09:14:53;;;;;;;5.20;3.75;;;563.20;742.40;;;;;;5067377;28;20020;-74
2021/04/26 09:17:38;;;;;;;6.43;3.70;;;538.20;716.80;;;;;;5069904;28;20379;-74
2021/04/26 09:20:16;;;;;;;5.88;4.25;;;538.50;691.20;;;;;;5081178;28;20029;-74
2021/04/26 09:22:57;;;;;;;4.70;3.05;;;563.50;665.60;;;;;;5070724;28;20032;-74
2021/04/26 09:25:35;;;;;;;6.63;3.78;;;564.10;640.00;;;;;;5071252;28;20020;-74
2021/04/26 09:28:03;;;;;;;5.78;3.80;;;564.00;614.40;;;;;;5070131;28;20539;-73
2021/04/26 09:30:52;;;;;;;5.60;3.33;;;563.80;563.20;;;;;;5070637;28;20376;-73
2021/04/26 09:33:32;;;;;;;6.70;3.63;;;563.20;640.00;;;;;;5071909;28;20024;-74
2021/04/26 09:35:58;;;;;;;4.75;3.00;;;538.20;691.20;;;;;;5072621;28;20020;-74
2021/04/26 09:38:35;;;;;;;5.72;3.55;;;538.00;665.60;;;;;;5068999;28;20482;-74
2021/04/26 09:41:25;;;;;;;7.32;3.67;;;538.50;640.00;;;;;;5072174;28;20021;-73
2021/04/26 09:43:59;;;;;;;5.45;3.67;;;563.20;614.40;;;;;;5070442;28;20038;-74
2021/04/26 09:46:36;;;;;;;7.13;3.70;;;563.50;640.00;;;;;;5086571;28;20025;-74
2021/04/26 09:49:08;;;;;;;6.18;2.97;;;563.80;640.00;;;;;;5077241;28;20021;-75
2021/04/26 09:51:33;;;;;;;5.30;3.20;;;564.10;614.40;;;;;;5071328;28;20017;-74
2021/04/26 09:53:59;;;;;;;6.60;4.40;;;589.00;640.00;;;;;;5069584;28;20166;-74
2021/04/26 09:56:36;;;;;;;3.83;2.72;;;589.20;614.40;;;;;;5073356;28;20043;-73
2021/04/26 09:59:03;;;;;;;6.05;4.00;;;589.40;588.80;;;;;;5068666;28;20048;-74
2021/04/26 10:01:29;;;;;;;4.85;3.03;;;614.40;588.80;;;;;;5070240;28;20040;-75
2021/04/26 10:03:56;;;;;;;5.43;3.85;;;589.70;588.80;;;;;;5066073;28;20514;-74
2021/04/26 10:06:24;;;;;;;7.95;3.60;;;589.50;614.40;;;;;;5071300;28;20762;-75
2021/04/26 10:08:52;;;;;;;5.68;3.38;;;589.50;614.40;;;;;;5068982;28;20100;-75
2021/04/26 10:11:19;;;;;;;5.22;3.63;;;588.90;665.60;;;;;;5068473;28;20024;-74
2021/04/26 10:13:46;;;;;;;5.53;4.07;;;563.70;665.60;;;;;;5068670;28;20113;-75
2021/04/26 10:16:23;;;;;;;5.35;3.65;;;589.10;640.00;;;;;;5086346;28;20024;-75
2021/04/26 10:18:49;;;;;;;7.38;3.92;;;589.20;614.40;;;;;;5070783;28;20040;-75
2021/04/26 10:21:18;;;;;;;4.15;2.97;;;614.70;563.20;;;;;;5070752;28;20482;-75
2021/04/26 10:23:51;;;;;;;5.13;3.33;;;640.00;563.20;;;;;;5070103;28;20463;-74
2021/04/26 10:26:39;;;;;;;5.90;3.80;;;614.90;563.20;;;;;;5070255;28;20024;-75
2021/04/26 10:29:20;;;;;;;4.88;3.35;;;614.80;588.80;;;;;;5071910;28;20024;-75
2021/04/26 10:32:03;;;;;;;6.88;3.00;;;615.10;563.20;;;;;;5064462;28;20044;-74
2021/04/26 10:34:56;;;;;;;5.63;2.95;;;615.20;563.20;;;;;;5071388;28;20028;-74
2021/04/26 10:37:25;;;;;;;5.38;3.15;;;589.10;640.00;;;;;;5070094;28;20459;-74
2021/04/26 10:40:00;;;;;;;4.13;3.28;;;563.80;614.40;;;;;;5072776;28;20025;-75
2021/04/26 10:42:30;;;;;;;5.43;3.00;;;589.00;640.00;;;;;;5071511;28;20360;-75
2021/04/26 10:44:56;;;;;;;5.28;2.55;;;588.90;614.40;;;;;;5068638;28;20012;-75
2021/04/26 10:47:27;;;;;;;5.88;5.28;;;564.00;640.00;;;;;;5070035;28;20017;-75
2021/04/26 10:50:16;;;;;;;6.60;4.45;;;588.80;614.40;;;;;;5071273;28;20024;-74
2021/04/26 10:52:42;;;;;;;5.97;3.78;;;588.80;614.40;;;;;;5065564;28;20025;-74
2021/04/26 10:55:18;;;;;;;4.85;2.92;;;589.10;614.40;;;;;;5072362;28;20016;-75
2021/04/26 10:57:48;;;;;;;5.47;4.30;;;589.60;588.80;;;;;;5070024;28;20475;-74
2021/04/26 11:02:48;;;;;;;6.78;4.72;;;615.20;563.20;;;;;;5071821;28;20029;-75
2021/04/26 11:05:24;;;;;;;6.20;4.05;;;614.90;563.20;;;;;;5071204;28;20020;-75
2021/04/26 11:07:57;;;;;;;5.60;3.38;;;615.20;537.60;;;;;;5067813;28;20028;-75
2021/04/26 11:10:29;;;;;;;5.03;3.33;;;614.70;563.20;;;;;;5070943;28;20032;-75
2021/04/26 11:13:00;;;;;;;4.30;2.75;;;589.70;563.20;;;;;;5070654;28;20029;-74
2021/04/26 11:15:26;;;;;;;5.07;3.33;;;614.40;563.20;;;;;;5069771;28;20489;-75
2021/04/26 11:17:53;;;;;;;4.43;3.40;;;589.70;563.20;;;;;;5068306;28;20192;-75
2021/04/26 11:20:24;;;;;;;4.15;2.95;;;589.30;588.80;;;;;;5071835;28;20468;-76
2021/04/26 11:22:56;;;;;;;5.18;3.53;;;589.70;563.20;;;;;;5071035;28;20763;-75
2021/04/26 11:25:40;;;;;;;4.15;2.63;;;615.00;537.60;;;;;;5069865;28;20032;-75
2021/04/26 11:28:09;;;;;;;5.50;3.67;;;615.00;537.60;;;;;;5069934;28;20020;-75
2021/04/26 11:30:36;;;;;;;3.95;2.53;;;614.50;563.20;;;;;;5070247;28;20498;-75
2021/04/26 11:33:11;;;;;;;5.32;3.42;;;615.20;537.60;;;;;;5070427;28;20025;-75
2021/04/26 11:36:12;;;;;;;4.38;2.90;;;640.60;486.40;;;;;;5074550;28;20067;-73
2021/04/26 11:38:39;;;;;;;3.50;2.92;;;640.20;512.00;;;;;;5071633;28;20028;-73
2021/04/26 11:41:05;;;;;;;4.20;2.63;;;640.60;486.40;;;;;;5088988;28;20387;-75
2021/04/26 11:43:31;;;;;;;5.05;2.92;;;665.70;486.40;;;;;;5074507;28;20028;-75
2021/04/26 11:45:57;;;;;;;4.90;2.70;;;640.10;512.00;;;;;;5079232;28;20082;-76
2021/04/26 11:48:26;;;;;;;5.85;3.40;;;640.00;512.00;;;;;;5072685;28;20528;-75
2021/04/26 11:50:52;;;;;;;4.72;2.42;;;640.30;512.00;;;;;;5080199;28;20033;-75
2021/04/26 11:53:33;;;;;;;4.80;2.97;;;666.10;486.40;;;;;;5072441;28;20545;-72
2021/04/26 11:56:15;;;;;;;4.10;2.47;;;666.50;486.40;;;;;;5071456;28;20036;-76
2021/04/26 11:58:41;;;;;;;4.30;3.35;;;691.90;460.80;;;;;;5072077;28;20032;-75
2021/04/26 12:01:14;;;;;;;8.52;5.70;;;691.80;486.40;;;;;;5069333;28;20040;-75
2021/04/26 12:03:57;;;;;;;5.35;3.70;;;666.20;512.00;;;;;;5073743;28;20023;-72
2021/04/26 12:06:23;;;;;;;5.45;3.38;;;666.10;512.00;;;;;;5072936;28;20509;-76
2021/04/26 12:08:49;;;;;;;5.75;3.13;;;666.10;512.00;;;;;;5073975;28;20025;-75
2021/04/26 12:11:20;;;;;;;4.03;2.78;;;691.50;486.40;;;;;;5074020;28;20028;-75
2021/04/26 12:14:11;;;;;;;5.30;3.65;;;665.70;512.00;;;;;;5075681;28;20071;-74
2021/04/26 12:16:37;;;;;;;9.38;6.57;;;640.90;512.00;;;;;;5072138;28;20025;-74
2021/04/26 12:19:04;;;;;;;10.32;6.82;;;665.80;512.00;;;;;;5071485;28;20475;-76
2021/04/26 12:21:33;;;;;;;6.30;4.28;;;665.70;537.60;;;;;;5073774;28;20083;-76